sensor_id;sensor_type;location;lat;lon;timestamp;temperature;humidity
42085;DHT22;27746;52.228;20.890;2022-08-05T00:01:25;22.10;86.80
42085;DHT22;27746;52.228;20.890;2022-08-05T00:03:52;22.00;87.00
42085;DHT22;27746;52.228;20.890;2022-08-05T00:06:18;22.00;87.20
42085;DHT22;27746;52.228;20.890;2022-08-05T00:08:45;22.00;87.30
42085;DHT22;27746;52.228;20.890;2022-08-05T00:11:13;21.90;87.50
42085;DHT22;27746;52.228;20.890;2022-08-05T00:13:42;21.90;87.70
42085;DHT22;27746;52.228;20.890;2022-08-05T00:16:11;21.90;88.00
42085;DHT22;27746;52.228;20.890;2022-08-05T00:18:40;21.90;88.30
42085;DHT22;27746;52.228;20.890;2022-08-05T00:21:07;21.80;88.50
42085;DHT22;27746;52.228;20.890;2022-08-05T00:23:35;21.80;88.70
42085;DHT22;27746;52.228;20.890;2022-08-05T00:26:02;21.70;89.00
42085;DHT22;27746;52.228;20.890;2022-08-05T00:28:29;21.70;89.20
42085;DHT22;27746;52.228;20.890;2022-08-05T00:30:57;21.70;89.50
42085;DHT22;27746;52.228;20.890;2022-08-05T00:33:23;21.60;89.70
42085;DHT22;27746;52.228;20.890;2022-08-05T00:35:50;21.50;90.00
42085;DHT22;27746;52.228;20.890;2022-08-05T00:38:17;21.60;90.10
42085;DHT22;27746;52.228;20.890;2022-08-05T00:40:50;21.50;90.10
42085;DHT22;27746;52.228;20.890;2022-08-05T00:43:17;21.40;90.30
42085;DHT22;27746;52.228;20.890;2022-08-05T00:45:44;21.40;90.40
42085;DHT22;27746;52.228;20.890;2022-08-05T00:48:16;21.40;90.60
42085;DHT22;27746;52.228;20.890;2022-08-05T00:50:46;21.40;90.70
42085;DHT22;27746;52.228;20.890;2022-08-05T00:53:13;21.30;90.80
42085;DHT22;27746;52.228;20.890;2022-08-05T00:55:41;21.30;90.90
42085;DHT22;27746;52.228;20.890;2022-08-05T00:58:08;21.20;90.90
42085;DHT22;27746;52.228;20.890;2022-08-05T01:00:35;21.20;91.10
42085;DHT22;27746;52.228;20.890;2022-08-05T01:03:02;21.20;91.10
42085;DHT22;27746;52.228;20.890;2022-08-05T01:05:30;21.20;91.20
42085;DHT22;27746;52.228;20.890;2022-08-05T01:07:57;21.20;91.30
42085;DHT22;27746;52.228;20.890;2022-08-05T01:10:29;21.20;91.40
42085;DHT22;27746;52.228;20.890;2022-08-05T01:13:05;21.10;91.50
42085;DHT22;27746;52.228;20.890;2022-08-05T01:15:38;21.10;91.60
42085;DHT22;27746;52.228;20.890;2022-08-05T01:18:11;21.10;91.70
42085;DHT22;27746;52.228;20.890;2022-08-05T01:20:46;21.10;91.80
42085;DHT22;27746;52.228;20.890;2022-08-05T01:23:20;21.10;91.90
42085;DHT22;27746;52.228;20.890;2022-08-05T01:26:26;21.00;92.00
42085;DHT22;27746;52.228;20.890;2022-08-05T01:29:00;21.00;92.10
42085;DHT22;27746;52.228;20.890;2022-08-05T01:31:33;21.00;92.10
42085;DHT22;27746;52.228;20.890;2022-08-05T01:34:03;21.00;92.30
42085;DHT22;27746;52.228;20.890;2022-08-05T01:36:35;21.00;92.30
42085;DHT22;27746;52.228;20.890;2022-08-05T01:39:04;20.90;92.40
42085;DHT22;27746;52.228;20.890;2022-08-05T01:41:34;20.90;92.50
42085;DHT22;27746;52.228;20.890;2022-08-05T01:44:05;20.90;92.60
42085;DHT22;27746;52.228;20.890;2022-08-05T01:46:34;20.90;92.60
42085;DHT22;27746;52.228;20.890;2022-08-05T01:49:02;20.80;92.70
42085;DHT22;27746;52.228;20.890;2022-08-05T01:51:30;20.90;92.80
42085;DHT22;27746;52.228;20.890;2022-08-05T01:54:01;20.90;92.90
42085;DHT22;27746;52.228;20.890;2022-08-05T01:56:30;20.90;92.90
42085;DHT22;27746;52.228;20.890;2022-08-05T01:59:00;20.80;93.00
42085;DHT22;27746;52.228;20.890;2022-08-05T02:01:30;20.80;93.10
42085;DHT22;27746;52.228;20.890;2022-08-05T02:03:59;20.80;93.20
42085;DHT22;27746;52.228;20.890;2022-08-05T02:06:27;20.80;93.30
42085;DHT22;27746;52.228;20.890;2022-08-05T02:08:54;20.70;93.40
42085;DHT22;27746;52.228;20.890;2022-08-05T02:11:21;20.70;93.70
42085;DHT22;27746;52.228;20.890;2022-08-05T02:13:52;20.70;93.60
42085;DHT22;27746;52.228;20.890;2022-08-05T02:16:21;20.70;93.70
42085;DHT22;27746;52.228;20.890;2022-08-05T02:18:53;20.60;93.80
42085;DHT22;27746;52.228;20.890;2022-08-05T02:21:24;20.60;93.90
42085;DHT22;27746;52.228;20.890;2022-08-05T02:23:53;20.50;94.10
42085;DHT22;27746;52.228;20.890;2022-08-05T02:26:24;20.50;94.30
42085;DHT22;27746;52.228;20.890;2022-08-05T02:28:54;20.50;94.30
42085;DHT22;27746;52.228;20.890;2022-08-05T02:31:26;20.50;94.50
42085;DHT22;27746;52.228;20.890;2022-08-05T02:33:58;20.40;94.60
42085;DHT22;27746;52.228;20.890;2022-08-05T02:36:27;20.50;94.70
42085;DHT22;27746;52.228;20.890;2022-08-05T02:38:56;20.40;94.70
42085;DHT22;27746;52.228;20.890;2022-08-05T02:41:25;20.40;94.90
42085;DHT22;27746;52.228;20.890;2022-08-05T02:43:54;20.40;95.00
42085;DHT22;27746;52.228;20.890;2022-08-05T02:46:22;20.40;95.10
42085;DHT22;27746;52.228;20.890;2022-08-05T02:48:50;20.40;95.30
42085;DHT22;27746;52.228;20.890;2022-08-05T02:51:21;20.30;95.30
42085;DHT22;27746;52.228;20.890;2022-08-05T02:53:50;20.30;95.40
42085;DHT22;27746;52.228;20.890;2022-08-05T02:56:17;20.30;95.50
42085;DHT22;27746;52.228;20.890;2022-08-05T02:58:44;20.30;95.60
42085;DHT22;27746;52.228;20.890;2022-08-05T03:01:16;20.30;95.70
42085;DHT22;27746;52.228;20.890;2022-08-05T03:03:47;20.30;96.10
42085;DHT22;27746;52.228;20.890;2022-08-05T03:06:15;20.20;95.90
42085;DHT22;27746;52.228;20.890;2022-08-05T03:08:44;20.30;95.90
42085;DHT22;27746;52.228;20.890;2022-08-05T03:11:18;20.30;96.10
42085;DHT22;27746;52.228;20.890;2022-08-05T03:13:46;20.20;96.20
42085;DHT22;27746;52.228;20.890;2022-08-05T03:16:13;20.30;96.30
42085;DHT22;27746;52.228;20.890;2022-08-05T03:18:41;20.30;96.30
42085;DHT22;27746;52.228;20.890;2022-08-05T03:21:08;20.30;96.40
42085;DHT22;27746;52.228;20.890;2022-08-05T03:23:36;20.30;96.50
42085;DHT22;27746;52.228;20.890;2022-08-05T03:26:05;20.30;96.60
42085;DHT22;27746;52.228;20.890;2022-08-05T03:28:32;20.30;96.70
42085;DHT22;27746;52.228;20.890;2022-08-05T03:31:00;20.30;96.80
42085;DHT22;27746;52.228;20.890;2022-08-05T03:33:28;20.20;96.90
42085;DHT22;27746;52.228;20.890;2022-08-05T03:35:56;20.20;97.00
42085;DHT22;27746;52.228;20.890;2022-08-05T03:38:23;20.20;97.10
42085;DHT22;27746;52.228;20.890;2022-08-05T03:40:51;20.30;97.20
42085;DHT22;27746;52.228;20.890;2022-08-05T03:43:20;20.30;97.10
42085;DHT22;27746;52.228;20.890;2022-08-05T03:45:49;20.30;97.20
42085;DHT22;27746;52.228;20.890;2022-08-05T03:48:16;20.30;97.20
42085;DHT22;27746;52.228;20.890;2022-08-05T03:50:49;20.30;97.20
42085;DHT22;27746;52.228;20.890;2022-08-05T03:53:26;20.40;97.20
42085;DHT22;27746;52.228;20.890;2022-08-05T03:55:59;20.40;97.30
42085;DHT22;27746;52.228;20.890;2022-08-05T03:58:31;20.40;97.40
42085;DHT22;27746;52.228;20.890;2022-08-05T04:01:01;20.40;97.30
42085;DHT22;27746;52.228;20.890;2022-08-05T04:03:28;20.50;97.50
42085;DHT22;27746;52.228;20.890;2022-08-05T04:06:00;20.50;97.50
42085;DHT22;27746;52.228;20.890;2022-08-05T04:08:27;20.50;97.70
42085;DHT22;27746;52.228;20.890;2022-08-05T04:10:56;20.50;97.60
42085;DHT22;27746;52.228;20.890;2022-08-05T04:13:23;20.50;97.70
42085;DHT22;27746;52.228;20.890;2022-08-05T04:15:51;20.60;97.90
42085;DHT22;27746;52.228;20.890;2022-08-05T04:18:19;20.60;97.90
42085;DHT22;27746;52.228;20.890;2022-08-05T04:20:52;20.60;97.80
42085;DHT22;27746;52.228;20.890;2022-08-05T04:23:21;20.70;98.10
42085;DHT22;27746;52.228;20.890;2022-08-05T04:25:48;20.70;97.90
42085;DHT22;27746;52.228;20.890;2022-08-05T04:28:15;20.70;97.90
42085;DHT22;27746;52.228;20.890;2022-08-05T04:30:42;20.70;97.90
42085;DHT22;27746;52.228;20.890;2022-08-05T04:33:10;20.80;98.00
42085;DHT22;27746;52.228;20.890;2022-08-05T04:35:37;20.80;97.90
42085;DHT22;27746;52.228;20.890;2022-08-05T04:38:04;20.80;98.00
42085;DHT22;27746;52.228;20.890;2022-08-05T04:40:32;20.90;97.90
42085;DHT22;27746;52.228;20.890;2022-08-05T04:42:59;20.90;97.90
42085;DHT22;27746;52.228;20.890;2022-08-05T04:45:26;21.00;97.90
42085;DHT22;27746;52.228;20.890;2022-08-05T04:47:53;21.10;98.00
42085;DHT22;27746;52.228;20.890;2022-08-05T04:50:21;21.20;98.00
42085;DHT22;27746;52.228;20.890;2022-08-05T04:52:48;21.20;98.00
42085;DHT22;27746;52.228;20.890;2022-08-05T04:55:15;21.30;97.80
42085;DHT22;27746;52.228;20.890;2022-08-05T04:57:43;21.30;97.80
42085;DHT22;27746;52.228;20.890;2022-08-05T05:00:12;21.40;98.10
42085;DHT22;27746;52.228;20.890;2022-08-05T05:02:38;21.40;97.70
42085;DHT22;27746;52.228;20.890;2022-08-05T05:05:06;21.50;97.90
42085;DHT22;27746;52.228;20.890;2022-08-05T05:07:34;21.60;97.60
42085;DHT22;27746;52.228;20.890;2022-08-05T05:10:01;21.70;97.40
42085;DHT22;27746;52.228;20.890;2022-08-05T05:12:29;21.70;97.20
42085;DHT22;27746;52.228;20.890;2022-08-05T05:14:56;21.80;97.40
42085;DHT22;27746;52.228;20.890;2022-08-05T05:17:23;21.80;97.30
42085;DHT22;27746;52.228;20.890;2022-08-05T05:19:52;21.90;97.00
42085;DHT22;27746;52.228;20.890;2022-08-05T05:22:18;21.90;97.00
42085;DHT22;27746;52.228;20.890;2022-08-05T05:24:47;22.00;97.00
42085;DHT22;27746;52.228;20.890;2022-08-05T05:27:13;22.10;96.90
42085;DHT22;27746;52.228;20.890;2022-08-05T05:29:40;22.10;96.70
42085;DHT22;27746;52.228;20.890;2022-08-05T05:32:07;22.10;96.60
42085;DHT22;27746;52.228;20.890;2022-08-05T05:34:33;22.20;96.70
42085;DHT22;27746;52.228;20.890;2022-08-05T05:37:00;22.30;96.40
42085;DHT22;27746;52.228;20.890;2022-08-05T05:39:27;22.30;96.40
42085;DHT22;27746;52.228;20.890;2022-08-05T05:41:55;22.40;96.20
42085;DHT22;27746;52.228;20.890;2022-08-05T05:44:22;22.40;95.90
42085;DHT22;27746;52.228;20.890;2022-08-05T05:46:48;22.40;96.00
42085;DHT22;27746;52.228;20.890;2022-08-05T05:49:15;22.50;96.10
42085;DHT22;27746;52.228;20.890;2022-08-05T05:51:42;22.60;96.00
42085;DHT22;27746;52.228;20.890;2022-08-05T05:54:08;22.60;95.90
42085;DHT22;27746;52.228;20.890;2022-08-05T05:56:35;22.70;95.70
42085;DHT22;27746;52.228;20.890;2022-08-05T05:59:04;22.70;95.70
42085;DHT22;27746;52.228;20.890;2022-08-05T06:01:32;22.80;95.50
42085;DHT22;27746;52.228;20.890;2022-08-05T06:03:59;22.80;95.50
42085;DHT22;27746;52.228;20.890;2022-08-05T06:06:26;23.00;95.50
42085;DHT22;27746;52.228;20.890;2022-08-05T06:08:52;22.90;95.40
42085;DHT22;27746;52.228;20.890;2022-08-05T06:11:19;23.00;95.70
42085;DHT22;27746;52.228;20.890;2022-08-05T06:13:46;23.10;95.30
42085;DHT22;27746;52.228;20.890;2022-08-05T06:16:14;23.10;95.40
42085;DHT22;27746;52.228;20.890;2022-08-05T06:18:41;23.10;95.10
42085;DHT22;27746;52.228;20.890;2022-08-05T06:21:08;23.20;95.10
42085;DHT22;27746;52.228;20.890;2022-08-05T06:23:34;23.30;95.20
42085;DHT22;27746;52.228;20.890;2022-08-05T06:26:02;23.30;95.20
42085;DHT22;27746;52.228;20.890;2022-08-05T06:28:29;23.40;95.20
42085;DHT22;27746;52.228;20.890;2022-08-05T06:30:56;23.50;94.90
42085;DHT22;27746;52.228;20.890;2022-08-05T06:33:24;23.50;94.90
42085;DHT22;27746;52.228;20.890;2022-08-05T06:35:51;23.60;94.90
42085;DHT22;27746;52.228;20.890;2022-08-05T06:38:17;23.60;95.20
42085;DHT22;27746;52.228;20.890;2022-08-05T06:40:44;23.70;95.00
42085;DHT22;27746;52.228;20.890;2022-08-05T06:43:11;23.70;94.90
42085;DHT22;27746;52.228;20.890;2022-08-05T06:45:38;23.80;94.50
42085;DHT22;27746;52.228;20.890;2022-08-05T06:48:05;23.90;94.80
42085;DHT22;27746;52.228;20.890;2022-08-05T06:50:33;24.00;94.40
42085;DHT22;27746;52.228;20.890;2022-08-05T06:53:00;24.00;94.10
42085;DHT22;27746;52.228;20.890;2022-08-05T06:55:27;24.10;94.00
42085;DHT22;27746;52.228;20.890;2022-08-05T06:57:53;24.10;93.90
42085;DHT22;27746;52.228;20.890;2022-08-05T07:00:25;24.10;94.40
42085;DHT22;27746;52.228;20.890;2022-08-05T07:02:52;24.20;94.00
42085;DHT22;27746;52.228;20.890;2022-08-05T07:05:18;24.30;93.80
42085;DHT22;27746;52.228;20.890;2022-08-05T07:07:46;24.40;94.20
42085;DHT22;27746;52.228;20.890;2022-08-05T07:10:14;24.50;94.00
42085;DHT22;27746;52.228;20.890;2022-08-05T07:12:41;24.50;94.20
42085;DHT22;27746;52.228;20.890;2022-08-05T07:15:25;24.60;94.00
42085;DHT22;27746;52.228;20.890;2022-08-05T07:18:09;24.70;94.00
42085;DHT22;27746;52.228;20.890;2022-08-05T07:20:36;24.80;93.30
42085;DHT22;27746;52.228;20.890;2022-08-05T07:23:04;24.80;93.00
42085;DHT22;27746;52.228;20.890;2022-08-05T07:25:31;24.80;93.30
42085;DHT22;27746;52.228;20.890;2022-08-05T07:27:58;24.90;92.90
42085;DHT22;27746;52.228;20.890;2022-08-05T07:30:24;24.90;92.90
42085;DHT22;27746;52.228;20.890;2022-08-05T07:32:51;25.00;92.60
42085;DHT22;27746;52.228;20.890;2022-08-05T07:35:18;25.00;92.50
42085;DHT22;27746;52.228;20.890;2022-08-05T07:37:45;25.00;92.60
42085;DHT22;27746;52.228;20.890;2022-08-05T07:40:13;25.10;92.50
42085;DHT22;27746;52.228;20.890;2022-08-05T07:42:39;25.20;92.30
42085;DHT22;27746;52.228;20.890;2022-08-05T07:45:07;25.30;92.60
42085;DHT22;27746;52.228;20.890;2022-08-05T07:47:34;25.30;91.90
42085;DHT22;27746;52.228;20.890;2022-08-05T07:50:01;25.30;92.10
42085;DHT22;27746;52.228;20.890;2022-08-05T07:52:28;25.40;91.90
42085;DHT22;27746;52.228;20.890;2022-08-05T07:54:54;25.50;91.60
42085;DHT22;27746;52.228;20.890;2022-08-05T07:57:22;25.50;91.60
42085;DHT22;27746;52.228;20.890;2022-08-05T07:59:49;25.60;91.40
42085;DHT22;27746;52.228;20.890;2022-08-05T08:02:16;25.70;91.70
42085;DHT22;27746;52.228;20.890;2022-08-05T08:04:45;25.70;91.40
42085;DHT22;27746;52.228;20.890;2022-08-05T08:07:12;25.80;91.30
42085;DHT22;27746;52.228;20.890;2022-08-05T08:09:39;25.90;91.50
42085;DHT22;27746;52.228;20.890;2022-08-05T08:12:06;26.00;92.30
42085;DHT22;27746;52.228;20.890;2022-08-05T08:14:34;26.20;91.60
42085;DHT22;27746;52.228;20.890;2022-08-05T08:17:01;26.30;90.60
42085;DHT22;27746;52.228;20.890;2022-08-05T08:19:27;26.30;90.60
42085;DHT22;27746;52.228;20.890;2022-08-05T08:21:54;26.30;90.70
42085;DHT22;27746;52.228;20.890;2022-08-05T08:24:21;26.50;90.50
42085;DHT22;27746;52.228;20.890;2022-08-05T08:26:48;26.60;91.20
42085;DHT22;27746;52.228;20.890;2022-08-05T08:29:15;26.60;90.60
42085;DHT22;27746;52.228;20.890;2022-08-05T08:31:43;26.70;90.40
42085;DHT22;27746;52.228;20.890;2022-08-05T08:34:10;26.80;90.20
42085;DHT22;27746;52.228;20.890;2022-08-05T08:36:37;26.80;90.00
42085;DHT22;27746;52.228;20.890;2022-08-05T08:39:04;26.90;88.80
42085;DHT22;27746;52.228;20.890;2022-08-05T08:41:32;26.90;88.40
42085;DHT22;27746;52.228;20.890;2022-08-05T08:44:00;26.90;87.70
42085;DHT22;27746;52.228;20.890;2022-08-05T08:46:30;26.90;88.60
42085;DHT22;27746;52.228;20.890;2022-08-05T08:48:58;26.90;88.90
42085;DHT22;27746;52.228;20.890;2022-08-05T08:51:31;26.90;88.80
42085;DHT22;27746;52.228;20.890;2022-08-05T08:53:58;27.00;88.00
42085;DHT22;27746;52.228;20.890;2022-08-05T08:56:26;27.00;90.00
42085;DHT22;27746;52.228;20.890;2022-08-05T08:58:53;26.70;87.70
42085;DHT22;27746;52.228;20.890;2022-08-05T09:01:20;27.10;87.60
42085;DHT22;27746;52.228;20.890;2022-08-05T09:03:49;27.10;86.60
42085;DHT22;27746;52.228;20.890;2022-08-05T09:06:18;27.20;88.00
42085;DHT22;27746;52.228;20.890;2022-08-05T09:08:45;27.30;87.60
42085;DHT22;27746;52.228;20.890;2022-08-05T09:11:11;27.40;86.50
42085;DHT22;27746;52.228;20.890;2022-08-05T09:13:40;27.40;86.30
42085;DHT22;27746;52.228;20.890;2022-08-05T09:16:07;27.50;85.00
42085;DHT22;27746;52.228;20.890;2022-08-05T09:18:36;27.50;86.40
42085;DHT22;27746;52.228;20.890;2022-08-05T09:21:03;27.70;86.10
42085;DHT22;27746;52.228;20.890;2022-08-05T09:23:32;27.70;84.60
42085;DHT22;27746;52.228;20.890;2022-08-05T09:26:06;27.80;85.10
42085;DHT22;27746;52.228;20.890;2022-08-05T09:28:37;27.80;86.50
42085;DHT22;27746;52.228;20.890;2022-08-05T09:31:05;27.90;83.50
42085;DHT22;27746;52.228;20.890;2022-08-05T09:33:46;28.00;83.90
42085;DHT22;27746;52.228;20.890;2022-08-05T09:36:13;28.10;83.50
42085;DHT22;27746;52.228;20.890;2022-08-05T09:38:54;28.10;81.50
42085;DHT22;27746;52.228;20.890;2022-08-05T09:41:21;28.20;82.30
42085;DHT22;27746;52.228;20.890;2022-08-05T09:43:48;28.20;82.50
42085;DHT22;27746;52.228;20.890;2022-08-05T09:46:27;28.30;80.90
42085;DHT22;27746;52.228;20.890;2022-08-05T09:48:55;28.30;80.50
42085;DHT22;27746;52.228;20.890;2022-08-05T09:51:32;28.40;81.10
42085;DHT22;27746;52.228;20.890;2022-08-05T09:54:01;28.50;81.00
42085;DHT22;27746;52.228;20.890;2022-08-05T09:56:31;28.60;81.10
42085;DHT22;27746;52.228;20.890;2022-08-05T09:58:59;28.60;81.20
42085;DHT22;27746;52.228;20.890;2022-08-05T10:01:27;28.70;81.90
42085;DHT22;27746;52.228;20.890;2022-08-05T10:03:55;28.70;80.90
42085;DHT22;27746;52.228;20.890;2022-08-05T10:06:24;28.80;81.50
42085;DHT22;27746;52.228;20.890;2022-08-05T10:08:51;28.80;80.80
42085;DHT22;27746;52.228;20.890;2022-08-05T10:11:20;28.80;80.60
42085;DHT22;27746;52.228;20.890;2022-08-05T10:13:47;28.90;81.10
42085;DHT22;27746;52.228;20.890;2022-08-05T10:16:31;29.00;80.70
42085;DHT22;27746;52.228;20.890;2022-08-05T10:18:59;29.20;81.60
42085;DHT22;27746;52.228;20.890;2022-08-05T10:21:26;29.30;81.40
42085;DHT22;27746;52.228;20.890;2022-08-05T10:23:54;29.40;79.40
42085;DHT22;27746;52.228;20.890;2022-08-05T10:26:22;29.40;79.10
42085;DHT22;27746;52.228;20.890;2022-08-05T10:28:50;29.40;78.70
42085;DHT22;27746;52.228;20.890;2022-08-05T10:31:17;29.40;77.80
42085;DHT22;27746;52.228;20.890;2022-08-05T10:33:43;29.40;78.30
42085;DHT22;27746;52.228;20.890;2022-08-05T10:36:10;29.50;78.00
42085;DHT22;27746;52.228;20.890;2022-08-05T10:38:41;29.60;78.30
42085;DHT22;27746;52.228;20.890;2022-08-05T10:41:14;29.70;79.60
42085;DHT22;27746;52.228;20.890;2022-08-05T10:43:50;29.60;78.90
42085;DHT22;27746;52.228;20.890;2022-08-05T10:46:20;29.70;78.40
42085;DHT22;27746;52.228;20.890;2022-08-05T10:48:48;29.80;79.90
42085;DHT22;27746;52.228;20.890;2022-08-05T10:51:17;29.90;78.50
42085;DHT22;27746;52.228;20.890;2022-08-05T10:53:51;29.90;78.60
42085;DHT22;27746;52.228;20.890;2022-08-05T10:56:20;30.00;78.30
42085;DHT22;27746;52.228;20.890;2022-08-05T10:59:04;30.10;77.60
42085;DHT22;27746;52.228;20.890;2022-08-05T11:01:33;30.10;77.60
42085;DHT22;27746;52.228;20.890;2022-08-05T11:04:08;30.10;77.10
42085;DHT22;27746;52.228;20.890;2022-08-05T11:07:04;30.10;77.70
42085;DHT22;27746;52.228;20.890;2022-08-05T11:09:37;30.20;77.70
42085;DHT22;27746;52.228;20.890;2022-08-05T11:12:04;30.30;76.70
42085;DHT22;27746;52.228;20.890;2022-08-05T11:14:33;30.20;77.00
42085;DHT22;27746;52.228;20.890;2022-08-05T11:20:05;30.40;76.20
42085;DHT22;27746;52.228;20.890;2022-08-05T11:22:43;30.40;76.00
42085;DHT22;27746;52.228;20.890;2022-08-05T11:25:31;30.40;77.40
42085;DHT22;27746;52.228;20.890;2022-08-05T11:28:36;30.40;75.50
42085;DHT22;27746;52.228;20.890;2022-08-05T11:31:27;30.60;75.70
42085;DHT22;27746;52.228;20.890;2022-08-05T11:34:00;30.80;76.40
42085;DHT22;27746;52.228;20.890;2022-08-05T11:36:45;30.80;76.00
42085;DHT22;27746;52.228;20.890;2022-08-05T11:39:15;31.00;74.60
42085;DHT22;27746;52.228;20.890;2022-08-05T11:41:50;31.00;74.80
42085;DHT22;27746;52.228;20.890;2022-08-05T11:44:19;31.00;74.80
42085;DHT22;27746;52.228;20.890;2022-08-05T11:46:49;30.90;74.90
42085;DHT22;27746;52.228;20.890;2022-08-05T11:49:17;30.90;75.50
42085;DHT22;27746;52.228;20.890;2022-08-05T11:51:48;31.00;75.10
42085;DHT22;27746;52.228;20.890;2022-08-05T11:54:21;31.10;75.20
42085;DHT22;27746;52.228;20.890;2022-08-05T11:56:51;31.10;74.00
42085;DHT22;27746;52.228;20.890;2022-08-05T11:59:20;31.20;73.30
42085;DHT22;27746;52.228;20.890;2022-08-05T12:01:58;31.20;73.50
42085;DHT22;27746;52.228;20.890;2022-08-05T12:04:27;31.40;72.30
42085;DHT22;27746;52.228;20.890;2022-08-05T12:06:54;31.40;71.90
42085;DHT22;27746;52.228;20.890;2022-08-05T12:09:25;31.40;72.50
42085;DHT22;27746;52.228;20.890;2022-08-05T12:11:55;31.40;72.80
42085;DHT22;27746;52.228;20.890;2022-08-05T12:14:21;31.40;73.40
42085;DHT22;27746;52.228;20.890;2022-08-05T12:16:50;31.40;72.60
42085;DHT22;27746;52.228;20.890;2022-08-05T12:19:18;31.40;73.50
42085;DHT22;27746;52.228;20.890;2022-08-05T12:21:48;31.50;71.80
42085;DHT22;27746;52.228;20.890;2022-08-05T12:24:17;31.30;71.40
42085;DHT22;27746;52.228;20.890;2022-08-05T12:26:45;31.30;71.00
42085;DHT22;27746;52.228;20.890;2022-08-05T12:29:14;31.40;72.50
42085;DHT22;27746;52.228;20.890;2022-08-05T12:31:45;31.40;72.20
42085;DHT22;27746;52.228;20.890;2022-08-05T12:34:12;31.50;71.30
42085;DHT22;27746;52.228;20.890;2022-08-05T12:36:41;31.60;70.60
42085;DHT22;27746;52.228;20.890;2022-08-05T12:39:08;31.70;70.50
42085;DHT22;27746;52.228;20.890;2022-08-05T12:41:36;31.70;70.50
42085;DHT22;27746;52.228;20.890;2022-08-05T12:44:05;31.60;69.70
42085;DHT22;27746;52.228;20.890;2022-08-05T12:46:34;31.60;70.20
42085;DHT22;27746;52.228;20.890;2022-08-05T12:49:05;31.70;71.70
42085;DHT22;27746;52.228;20.890;2022-08-05T12:51:44;31.70;70.20
42085;DHT22;27746;52.228;20.890;2022-08-05T12:54:18;31.80;70.10
42085;DHT22;27746;52.228;20.890;2022-08-05T12:56:49;31.80;70.20
42085;DHT22;27746;52.228;20.890;2022-08-05T12:59:18;31.80;70.60
42085;DHT22;27746;52.228;20.890;2022-08-05T13:01:53;31.80;70.30
42085;DHT22;27746;52.228;20.890;2022-08-05T13:04:20;31.90;70.70
42085;DHT22;27746;52.228;20.890;2022-08-05T13:06:49;31.80;70.30
42085;DHT22;27746;52.228;20.890;2022-08-05T13:09:15;31.80;70.30
42085;DHT22;27746;52.228;20.890;2022-08-05T13:11:43;31.90;69.40
42085;DHT22;27746;52.228;20.890;2022-08-05T13:14:18;31.90;69.80
42085;DHT22;27746;52.228;20.890;2022-08-05T13:16:50;31.90;69.40
42085;DHT22;27746;52.228;20.890;2022-08-05T13:19:23;32.00;70.50
42085;DHT22;27746;52.228;20.890;2022-08-05T13:21:52;31.90;69.80
42085;DHT22;27746;52.228;20.890;2022-08-05T13:24:20;32.00;69.50
42085;DHT22;27746;52.228;20.890;2022-08-05T13:26:48;32.10;69.80
42085;DHT22;27746;52.228;20.890;2022-08-05T13:29:15;32.00;70.00
42085;DHT22;27746;52.228;20.890;2022-08-05T13:31:44;32.00;69.70
42085;DHT22;27746;52.228;20.890;2022-08-05T13:34:11;32.00;69.80
42085;DHT22;27746;52.228;20.890;2022-08-05T13:36:38;32.00;69.40
42085;DHT22;27746;52.228;20.890;2022-08-05T13:39:06;31.90;70.60
42085;DHT22;27746;52.228;20.890;2022-08-05T13:41:34;32.00;69.70
42085;DHT22;27746;52.228;20.890;2022-08-05T13:44:01;32.10;69.40
42085;DHT22;27746;52.228;20.890;2022-08-05T13:46:28;32.10;69.80
42085;DHT22;27746;52.228;20.890;2022-08-05T13:48:55;32.10;69.60
42085;DHT22;27746;52.228;20.890;2022-08-05T13:51:30;32.10;70.00
42085;DHT22;27746;52.228;20.890;2022-08-05T13:53:57;32.10;70.30
42085;DHT22;27746;52.228;20.890;2022-08-05T13:56:26;32.30;70.20
42085;DHT22;27746;52.228;20.890;2022-08-05T13:58:52;32.30;70.80
42085;DHT22;27746;52.228;20.890;2022-08-05T14:01:20;32.50;70.60
42085;DHT22;27746;52.228;20.890;2022-08-05T14:03:48;32.50;70.00
42085;DHT22;27746;52.228;20.890;2022-08-05T14:06:28;32.30;69.60
42085;DHT22;27746;52.228;20.890;2022-08-05T14:08:55;31.90;69.70
42085;DHT22;27746;52.228;20.890;2022-08-05T14:11:22;32.30;70.20
42085;DHT22;27746;52.228;20.890;2022-08-05T14:13:50;32.40;70.00
42085;DHT22;27746;52.228;20.890;2022-08-05T14:16:16;32.50;69.40
42085;DHT22;27746;52.228;20.890;2022-08-05T14:18:43;32.50;69.10
42085;DHT22;27746;52.228;20.890;2022-08-05T14:21:11;32.60;69.50
42085;DHT22;27746;52.228;20.890;2022-08-05T14:23:38;32.70;69.70
42085;DHT22;27746;52.228;20.890;2022-08-05T14:26:05;32.60;68.90
42085;DHT22;27746;52.228;20.890;2022-08-05T14:28:32;32.70;68.80
42085;DHT22;27746;52.228;20.890;2022-08-05T14:31:00;32.80;69.60
42085;DHT22;27746;52.228;20.890;2022-08-05T14:33:27;32.90;69.90
42085;DHT22;27746;52.228;20.890;2022-08-05T14:35:55;32.90;68.50
42085;DHT22;27746;52.228;20.890;2022-08-05T14:38:22;32.90;68.30
42085;DHT22;27746;52.228;20.890;2022-08-05T14:40:48;32.90;69.10
42085;DHT22;27746;52.228;20.890;2022-08-05T14:43:16;32.90;68.60
42085;DHT22;27746;52.228;20.890;2022-08-05T14:45:42;32.80;68.80
42085;DHT22;27746;52.228;20.890;2022-08-05T14:48:11;32.90;70.00
42085;DHT22;27746;52.228;20.890;2022-08-05T14:50:37;32.90;69.00
42085;DHT22;27746;52.228;20.890;2022-08-05T14:53:04;32.90;68.80
42085;DHT22;27746;52.228;20.890;2022-08-05T14:55:31;32.90;68.10
42085;DHT22;27746;52.228;20.890;2022-08-05T14:57:58;32.90;68.50
42085;DHT22;27746;52.228;20.890;2022-08-05T15:00:25;32.90;68.90
42085;DHT22;27746;52.228;20.890;2022-08-05T15:02:53;32.80;68.90
42085;DHT22;27746;52.228;20.890;2022-08-05T15:05:21;32.70;69.00
42085;DHT22;27746;52.228;20.890;2022-08-05T15:07:48;32.70;69.60
42085;DHT22;27746;52.228;20.890;2022-08-05T15:10:15;32.60;69.40
42085;DHT22;27746;52.228;20.890;2022-08-05T15:12:42;32.50;68.60
42085;DHT22;27746;52.228;20.890;2022-08-05T15:15:10;32.40;68.60
42085;DHT22;27746;52.228;20.890;2022-08-05T15:17:36;32.20;68.60
42085;DHT22;27746;52.228;20.890;2022-08-05T15:20:04;32.20;69.20
42085;DHT22;27746;52.228;20.890;2022-08-05T15:22:33;32.10;69.70
42085;DHT22;27746;52.228;20.890;2022-08-05T15:24:59;32.10;70.10
42085;DHT22;27746;52.228;20.890;2022-08-05T15:27:26;32.00;70.10
42085;DHT22;27746;52.228;20.890;2022-08-05T15:29:53;31.90;69.50